Time;durP1;ratioP1;P1;durP2;ratioP2;P2;SDS_P1;SDS_P2;PMS_P1;PMS_P2;Temp;Humidity;BMP_temperature;BMP_pressure;BME280_temperature;BME280_humidity;BME280_pressure;Samples;Min_cycle;Max_cycle;Signal;HPM_P1;HPM_P2
2022/12/20 00:00:49;;;;;;;20.98;6.95;;;11.70;99.90;;;;;;5015306;28;20050;-75
2022/12/20 00:03:15;;;;;;;20.27;5.78;;;11.70;99.90;;;;;;5013038;28;20389;-76
2022/12/20 00:05:42;;;;;;;12.05;6.53;;;11.70;99.90;;;;;;5014087;28;20031;-75
2022/12/20 00:08:08;;;;;;;29.85;8.35;;;11.70;99.90;;;;;;5012367;28;20021;-76
2022/12/20 00:10:39;;;;;;;20.48;5.32;;;11.70;99.90;;;;;;5014369;28;20033;-75
2022/12/20 00:13:06;;;;;;;14.82;6.25;;;11.70;99.90;;;;;;5012364;28;20026;-75
2022/12/20 00:15:32;;;;;;;19.90;6.28;;;11.80;99.90;;;;;;5014981;28;20481;-77
2022/12/20 00:17:59;;;;;;;13.82;5.30;;;11.80;99.90;;;;;;4994360;28;20027;-76
2022/12/20 00:20:25;;;;;;;17.40;5.32;;;11.80;99.90;;;;;;5013742;28;20492;-75
2022/12/20 00:22:51;;;;;;;14.40;6.07;;;11.80;99.90;;;;;;4994091;28;20037;-76
2022/12/20 00:25:19;;;;;;;17.48;6.57;;;11.70;99.90;;;;;;4989013;28;20486;-76
2022/12/20 00:27:46;;;;;;;17.90;6.00;;;11.70;99.90;;;;;;4976660;28;20133;-76
2022/12/20 00:30:13;;;;;;;13.70;5.85;;;11.70;99.90;;;;;;4979213;28;20018;-76
2022/12/20 00:32:39;;;;;;;21.25;6.03;;;11.70;99.90;;;;;;4973306;28;20403;-75
2022/12/20 00:35:05;;;;;;;20.63;5.70;;;11.70;99.90;;;;;;4996708;28;20069;-76
2022/12/20 00:37:30;;;;;;;13.18;5.20;;;11.70;99.90;;;;;;4991492;28;20026;-75
2022/12/20 00:39:56;;;;;;;22.08;5.32;;;11.60;99.90;;;;;;4995261;28;20034;-77
2022/12/20 00:42:22;;;;;;;17.67;5.43;;;11.60;99.90;;;;;;4973463;28;20030;-75
2022/12/20 00:44:48;;;;;;;29.35;6.82;;;11.50;99.90;;;;;;4978424;28;20053;-75
2022/12/20 00:47:14;;;;;;;22.73;5.10;;;11.50;99.90;;;;;;4994362;28;20026;-76
2022/12/20 00:49:40;;;;;;;16.60;6.05;;;11.50;99.90;;;;;;4978976;28;20553;-76
2022/12/20 00:52:06;;;;;;;17.88;6.20;;;11.50;99.90;;;;;;4990425;28;20489;-76
2022/12/20 00:54:32;;;;;;;21.65;6.38;;;11.40;99.90;;;;;;4998668;28;20097;-75
2022/12/20 00:56:58;;;;;;;17.85;5.63;;;11.40;99.90;;;;;;4992749;28;20027;-75
2022/12/20 00:59:24;;;;;;;16.95;6.45;;;11.40;99.90;;;;;;4982282;28;20109;-76
2022/12/20 01:01:50;;;;;;;15.65;6.18;;;11.40;99.90;;;;;;4974427;28;20039;-76
2022/12/20 01:04:16;;;;;;;15.43;5.57;;;11.40;99.90;;;;;;4999055;28;20026;-76
2022/12/20 01:06:42;;;;;;;22.48;6.07;;;11.40;99.90;;;;;;4995177;28;20110;-76
2022/12/20 01:09:10;;;;;;;20.73;5.60;;;11.40;99.90;;;;;;4997333;28;20026;-76
2022/12/20 01:11:37;;;;;;;16.48;6.05;;;11.40;99.90;;;;;;4976441;28;20131;-75
2022/12/20 01:14:06;;;;;;;14.15;5.60;;;11.40;99.90;;;;;;4999876;28;20018;-75
2022/12/20 01:16:38;;;;;;;17.55;6.35;;;11.40;99.90;;;;;;4976350;28;20062;-76
2022/12/20 01:19:05;;;;;;;13.88;5.07;;;11.40;99.90;;;;;;4987706;28;20490;-75
2022/12/20 01:21:31;;;;;;;18.63;5.00;;;11.40;99.90;;;;;;4993436;28;20035;-75
2022/12/20 01:23:57;;;;;;;12.65;5.35;;;11.50;99.90;;;;;;4999566;28;20029;-75
2022/12/20 01:26:27;;;;;;;16.85;5.25;;;11.50;99.90;;;;;;5011033;28;20053;-76
2022/12/20 01:28:55;;;;;;;17.33;5.88;;;11.50;99.90;;;;;;5002050;28;20033;-75
2022/12/20 01:31:21;;;;;;;14.13;5.25;;;11.50;99.90;;;;;;5014412;28;20410;-75
2022/12/20 01:33:48;;;;;;;12.48;5.32;;;11.40;99.90;;;;;;5019423;28;20025;-76
2022/12/20 01:36:17;;;;;;;21.10;5.45;;;11.50;99.90;;;;;;4998166;28;20035;-75
2022/12/20 01:38:43;;;;;;;12.93;4.60;;;11.50;99.90;;;;;;5017209;28;20022;-76
2022/12/20 01:41:15;;;;;;;22.77;5.38;;;11.50;99.90;;;;;;4999067;28;20386;-75
2022/12/20 01:43:45;;;;;;;13.15;5.55;;;11.50;99.90;;;;;;5018982;28;20388;-75
2022/12/20 01:46:11;;;;;;;12.73;6.40;;;11.50;99.90;;;;;;5016684;28;20044;-75
2022/12/20 01:48:38;;;;;;;16.00;4.65;;;11.50;99.90;;;;;;5018425;28;20023;-75
2022/12/20 01:51:04;;;;;;;14.90;5.03;;;11.40;99.90;;;;;;5016815;28;20396;-75
2022/12/20 01:53:31;;;;;;;17.63;5.30;;;11.40;99.90;;;;;;5011717;28;20452;-75
2022/12/20 01:56:01;;;;;;;17.35;5.18;;;11.40;99.90;;;;;;4999955;28;20406;-75
2022/12/20 01:58:27;;;;;;;11.98;5.05;;;11.40;99.90;;;;;;5012948;28;20363;-76
2022/12/20 02:00:52;;;;;;;22.95;5.93;;;11.40;99.90;;;;;;5016626;28;20026;-75
2022/12/20 02:03:18;;;;;;;27.52;5.72;;;11.40;99.90;;;;;;5014512;28;20026;-74
2022/12/20 02:05:45;;;;;;;19.25;5.85;;;11.50;99.90;;;;;;5016739;28;20066;-74
2022/12/20 02:08:14;;;;;;;16.33;5.28;;;11.50;99.90;;;;;;5013768;28;20077;-74
2022/12/20 02:11:00;;;;;;;14.40;5.47;;;11.40;99.90;;;;;;5016231;28;20026;-75
2022/12/20 02:13:37;;;;;;;18.20;5.85;;;11.40;99.90;;;;;;5012081;28;20025;-74
2022/12/20 02:16:03;;;;;;;15.38;5.40;;;11.40;99.90;;;;;;5015202;28;20109;-74
2022/12/20 02:18:44;;;;;;;18.40;5.60;;;11.40;99.90;;;;;;5016071;28;20101;-75
2022/12/20 02:21:17;;;;;;;;;;;11.30;99.90;;;;;;5014185;28;20084;-74
2022/12/20 02:24:04;;;;;;;24.10;6.55;;;11.30;99.90;;;;;;5017927;28;19910;-75
2022/12/20 02:26:50;;;;;;;16.90;5.15;;;11.30;99.90;;;;;;4975713;28;20042;-75
2022/12/20 02:29:36;;;;;;;10.43;5.30;;;11.40;99.90;;;;;;4998309;28;20499;-74
2022/12/20 02:32:11;;;;;;;18.23;5.70;;;11.40;99.90;;;;;;4967914;28;20037;-74
2022/12/20 02:34:40;;;;;;;15.52;5.60;;;11.30;99.90;;;;;;4997407;28;20041;-74
2022/12/20 02:37:06;;;;;;;13.60;5.40;;;11.30;99.90;;;;;;4995108;28;20029;-74
2022/12/20 02:39:34;;;;;;;19.98;6.25;;;11.30;99.90;;;;;;4978966;28;20094;-75
2022/12/20 02:42:08;;;;;;;15.75;5.28;;;11.30;99.90;;;;;;4996152;28;20085;-74
2022/12/20 02:47:33;;;;;;;10.52;5.00;;;11.30;99.90;;;;;;4996012;28;20110;-76
2022/12/20 02:50:00;;;;;;;17.67;5.88;;;11.20;99.90;;;;;;4987086;28;20026;-74
2022/12/20 02:52:29;;;;;;;14.48;5.40;;;11.20;99.90;;;;;;4989000;28;20034;-75
2022/12/20 02:54:56;;;;;;;9.35;5.15;;;11.20;99.90;;;;;;4980753;28;20018;-74
2022/12/20 02:57:31;;;;;;;16.23;6.60;;;11.30;99.90;;;;;;4990441;28;20467;-74
2022/12/20 03:00:13;;;;;;;19.13;5.68;;;11.20;99.90;;;;;;4988906;28;20018;-75
2022/12/20 03:05:26;;;;;;;19.65;5.65;;;11.40;99.90;;;;;;4997545;28;20033;-74
2022/12/20 03:07:52;;;;;;;15.55;4.90;;;11.40;99.90;;;;;;4992732;28;20026;-73
2022/12/20 03:10:20;;;;;;;18.17;5.57;;;11.50;99.90;;;;;;4979469;28;20052;-74
2022/12/20 03:12:46;;;;;;;15.80;5.18;;;11.50;99.90;;;;;;4992143;28;20080;-75
2022/12/20 03:15:12;;;;;;;15.20;5.20;;;11.50;99.90;;;;;;4997074;28;20018;-75
2022/12/20 03:17:37;;;;;;;8.73;4.43;;;11.60;99.90;;;;;;4974059;28;20095;-73
2022/12/20 03:20:05;;;;;;;10.77;4.75;;;11.60;99.90;;;;;;4980019;28;20022;-74
2022/12/20 03:22:32;;;;;;;12.73;5.20;;;11.60;99.90;;;;;;4973884;28;20038;-75
2022/12/20 03:24:59;;;;;;;10.85;4.75;;;11.60;99.90;;;;;;5003403;28;21540;-74
2022/12/20 03:27:27;;;;;;;20.25;5.95;;;11.60;99.90;;;;;;5011735;28;20037;-74
2022/12/20 03:29:53;;;;;;;11.52;5.25;;;11.70;99.90;;;;;;5013822;28;20018;-74
2022/12/20 03:32:19;;;;;;;12.82;4.30;;;11.60;99.90;;;;;;5012933;28;20042;-74
2022/12/20 03:34:46;;;;;;;15.98;6.15;;;11.60;99.90;;;;;;5016336;28;20014;-75
2022/12/20 03:37:12;;;;;;;8.77;4.70;;;11.50;99.90;;;;;;5013981;28;20529;-75
2022/12/20 03:39:38;;;;;;;14.30;4.95;;;11.60;99.90;;;;;;4998702;28;20022;-74
2022/12/20 03:42:04;;;;;;;16.10;5.22;;;11.60;99.90;;;;;;4994053;28;20042;-74
2022/12/20 03:44:30;;;;;;;8.65;5.63;;;11.60;99.90;;;;;;4999011;28;20025;-75
2022/12/20 03:46:55;;;;;;;12.90;5.25;;;11.60;99.90;;;;;;5010433;28;20037;-75
2022/12/20 03:49:21;;;;;;;16.38;5.38;;;11.60;99.90;;;;;;4995999;28;20029;-75
2022/12/20 03:51:47;;;;;;;12.23;4.28;;;11.70;99.90;;;;;;4993626;28;20030;-75
2022/12/20 03:54:13;;;;;;;18.83;5.93;;;11.80;99.90;;;;;;5013106;28;20069;-74
2022/12/20 03:56:39;;;;;;;13.45;4.63;;;11.80;99.90;;;;;;5011938;28;20085;-75
2022/12/20 03:59:04;;;;;;;7.10;3.97;;;11.80;99.90;;;;;;4998993;28;20010;-75
2022/12/20 04:01:35;;;;;;;16.35;5.05;;;11.90;99.90;;;;;;4994026;28;20494;-75
2022/12/20 04:04:01;;;;;;;19.52;5.60;;;11.90;99.90;;;;;;4999192;28;20044;-75
2022/12/20 04:06:28;;;;;;;17.20;5.70;;;12.00;99.90;;;;;;4993084;28;20042;-76
2022/12/20 04:08:54;;;;;;;20.23;4.40;;;12.00;99.90;;;;;;5016513;28;20018;-75
2022/12/20 04:11:20;;;;;;;13.57;5.45;;;12.00;99.90;;;;;;5010931;28;20038;-75
2022/12/20 04:13:51;;;;;;;12.73;4.55;;;12.10;99.90;;;;;;5016798;28;20010;-76
2022/12/20 04:16:25;;;;;;;13.13;5.20;;;12.10;99.90;;;;;;5011584;28;20398;-76
2022/12/20 04:18:51;;;;;;;8.23;3.80;;;12.10;99.90;;;;;;5015888;28;20068;-76
2022/12/20 04:21:29;;;;;;;14.75;5.43;;;12.10;99.90;;;;;;5011540;28;20038;-76
2022/12/20 04:23:55;;;;;;;15.27;4.55;;;12.10;99.90;;;;;;4991617;28;20022;-75
2022/12/20 04:26:21;;;;;;;10.57;4.38;;;12.10;99.90;;;;;;5012053;28;20047;-75
2022/12/20 04:28:47;;;;;;;19.75;5.38;;;12.10;99.90;;;;;;5017563;28;20034;-76
2022/12/20 04:31:13;;;;;;;13.52;4.93;;;12.10;99.90;;;;;;5016663;28;20034;-75
2022/12/20 04:33:39;;;;;;;16.13;4.57;;;12.10;99.90;;;;;;5002570;28;20053;-76
2022/12/20 04:36:05;;;;;;;15.65;4.15;;;12.10;99.90;;;;;;5017887;28;20026;-74
2022/12/20 04:38:32;;;;;;;15.27;5.05;;;12.10;99.90;;;;;;5010965;28;20025;-75
2022/12/20 04:40:58;;;;;;;12.02;5.60;;;12.00;99.90;;;;;;5000186;28;20018;-75
2022/12/20 04:43:23;;;;;;;20.23;4.90;;;12.00;99.90;;;;;;5000532;28;20041;-75
2022/12/20 04:45:52;;;;;;;15.15;5.07;;;12.00;99.90;;;;;;5001017;28;20482;-75
2022/12/20 04:48:19;;;;;;;16.17;5.53;;;11.90;99.90;;;;;;5016057;28;20068;-76
2022/12/20 04:50:49;;;;;;;23.38;5.03;;;11.90;99.90;;;;;;5000446;28;20030;-75
2022/12/20 04:56:00;;;;;;;36.92;15.98;;;11.80;99.90;;;;;;5016700;28;20109;-75
2022/12/20 04:58:25;;;;;;;18.45;7.07;;;11.80;99.90;;;;;;5014938;28;20108;-74
2022/12/20 05:00:51;;;;;;;79.13;31.23;;;11.80;99.90;;;;;;5017568;28;20099;-74
2022/12/20 05:03:18;;;;;;;198.95;78.65;;;11.80;99.90;;;;;;5013447;28;20018;-75
2022/12/20 05:05:44;;;;;;;135.30;44.85;;;11.80;99.90;;;;;;4999477;28;20026;-75
2022/12/20 05:08:10;;;;;;;29.25;8.75;;;11.80;99.90;;;;;;4994879;28;20034;-75
2022/12/20 05:10:36;;;;;;;54.25;20.77;;;11.70;99.90;;;;;;5016160;28;20025;-74
2022/12/20 05:13:02;;;;;;;34.40;14.60;;;11.70;99.90;;;;;;5012343;28;20033;-74
2022/12/20 05:15:28;;;;;;;567.47;248.65;;;11.70;99.90;;;;;;4999873;28;20030;-74
2022/12/20 05:17:58;;;;;;;57.58;17.15;;;11.70;99.90;;;;;;5011512;28;20371;-75
2022/12/20 05:20:29;;;;;;;126.07;46.83;;;11.70;99.90;;;;;;5018613;28;20028;-74
2022/12/20 05:28:28;;;;;;;37.40;19.25;;;11.80;99.90;;;;;;5015143;28;20524;-75
2022/12/20 05:30:54;;;;;;;80.20;40.70;;;11.80;99.90;;;;;;4996967;28;20033;-74
2022/12/20 05:33:20;;;;;;;156.82;78.07;;;11.80;99.90;;;;;;5000377;28;20036;-73
2022/12/20 05:35:46;;;;;;;103.10;48.67;;;11.70;99.90;;;;;;5015195;28;20101;-75
2022/12/20 05:38:12;;;;;;;36.17;23.58;;;11.80;99.90;;;;;;5012324;28;20061;-74
2022/12/20 05:40:38;;;;;;;25.55;13.73;;;11.80;99.90;;;;;;5015905;28;20018;-75
2022/12/20 05:43:05;;;;;;;12.43;7.97;;;11.80;99.90;;;;;;5013321;28;20045;-74
2022/12/20 05:45:32;;;;;;;25.42;9.27;;;11.90;99.90;;;;;;5017746;28;20034;-74
2022/12/20 05:47:58;;;;;;;21.85;5.28;;;12.00;99.90;;;;;;5000894;28;20396;-75
2022/12/20 05:50:24;;;;;;;18.65;5.25;;;12.00;99.90;;;;;;5018404;28;20087;-75
2022/12/20 05:52:50;;;;;;;11.00;4.55;;;12.00;99.90;;;;;;5009610;28;20503;-75
2022/12/20 05:55:16;;;;;;;9.23;4.18;;;12.00;99.90;;;;;;5018321;28;20026;-75
2022/12/20 05:57:42;;;;;;;15.23;6.03;;;12.00;99.90;;;;;;5007679;28;20022;-74
2022/12/20 06:00:09;;;;;;;17.98;5.07;;;12.00;99.90;;;;;;5018774;28;20485;-76
2022/12/20 06:02:35;;;;;;;22.83;7.30;;;11.90;99.90;;;;;;5010498;28;20033;-74
2022/12/20 06:05:01;;;;;;;16.17;5.93;;;11.90;99.90;;;;;;5001049;28;20033;-74
2022/12/20 06:07:28;;;;;;;15.98;6.47;;;11.90;99.90;;;;;;5012357;28;20053;-74
2022/12/20 06:09:55;;;;;;;16.48;6.20;;;11.90;99.90;;;;;;5017723;28;20100;-74
2022/12/20 06:12:21;;;;;;;16.98;5.50;;;11.90;99.90;;;;;;5012276;28;20391;-76
2022/12/20 06:14:47;;;;;;;34.28;15.52;;;11.90;99.90;;;;;;5018639;28;20026;-73
2022/12/20 06:17:13;;;;;;;14.77;7.32;;;11.90;99.90;;;;;;5012300;28;20018;-75
2022/12/20 06:19:42;;;;;;;12.02;5.20;;;11.90;99.90;;;;;;4999660;28;20033;-75
2022/12/20 06:22:08;;;;;;;14.02;6.57;;;11.90;99.90;;;;;;5011156;28;20029;-73
2022/12/20 06:24:35;;;;;;;91.57;43.42;;;11.90;99.90;;;;;;5017683;28;20033;-74
2022/12/20 06:27:02;;;;;;;40.95;20.40;;;11.90;99.90;;;;;;5012300;28;20037;-75
2022/12/20 06:29:28;;;;;;;28.38;15.13;;;11.90;99.90;;;;;;5016162;28;20444;-74
2022/12/20 06:31:55;;;;;;;37.83;18.77;;;11.90;99.90;;;;;;4999862;28;20528;-76
2022/12/20 06:34:22;;;;;;;18.90;9.45;;;12.00;99.90;;;;;;5018079;28;20042;-76
2022/12/20 06:36:47;;;;;;;47.50;28.55;;;12.00;99.90;;;;;;5011697;28;20015;-75
2022/12/20 06:39:14;;;;;;;18.38;9.13;;;12.00;99.90;;;;;;5006145;28;20050;-76
2022/12/20 06:41:40;;;;;;;23.13;8.20;;;12.00;99.90;;;;;;5013008;28;20040;-75
2022/12/20 06:44:06;;;;;;;21.60;8.75;;;12.00;99.90;;;;;;5013887;28;20026;-75
2022/12/20 06:46:32;;;;;;;17.90;7.25;;;12.00;99.90;;;;;;5014170;28;20025;-75
2022/12/20 06:48:58;;;;;;;13.93;5.18;;;12.00;99.90;;;;;;4998307;28;20030;-75
2022/12/20 06:51:25;;;;;;;13.43;5.18;;;12.00;99.90;;;;;;4999795;28;20026;-76
2022/12/20 06:53:50;;;;;;;18.13;6.18;;;12.00;99.90;;;;;;4993225;28;20090;-75
2022/12/20 06:56:16;;;;;;;19.83;5.45;;;12.00;99.90;;;;;;5013696;28;20462;-75
2022/12/20 06:58:44;;;;;;;11.02;4.82;;;12.10;99.90;;;;;;4999460;28;20046;-75
2022/12/20 07:01:10;;;;;;;8.75;4.90;;;12.10;99.90;;;;;;4998420;28;20030;-75
2022/12/20 07:03:35;;;;;;;13.07;5.32;;;12.10;99.90;;;;;;5002398;28;20057;-76
2022/12/20 07:06:01;;;;;;;38.83;24.80;;;12.10;99.90;;;;;;4990010;28;20465;-76
2022/12/20 07:08:27;;;;;;;42.67;17.13;;;12.10;99.90;;;;;;4989221;28;20065;-76
2022/12/20 07:10:53;;;;;;;82.43;47.83;;;12.10;99.90;;;;;;5008042;28;20077;-75
2022/12/20 07:13:19;;;;;;;22.80;10.30;;;12.10;99.90;;;;;;5013260;28;20098;-75
2022/12/20 07:15:45;;;;;;;44.20;22.80;;;12.10;99.90;;;;;;4985539;28;20513;-74
2022/12/20 07:18:11;;;;;;;82.35;50.97;;;12.10;99.90;;;;;;5000764;28;20029;-76
2022/12/20 07:20:37;;;;;;;28.30;14.35;;;12.00;99.90;;;;;;5002466;28;20026;-77
2022/12/20 07:23:03;;;;;;;17.80;5.35;;;12.10;99.90;;;;;;5006168;28;20053;-75
2022/12/20 07:25:29;;;;;;;17.73;6.22;;;12.10;99.90;;;;;;5009672;28;20046;-74
2022/12/20 07:27:55;;;;;;;29.35;15.90;;;12.10;99.90;;;;;;5010669;28;20509;-76
2022/12/20 07:30:22;;;;;;;22.67;10.88;;;12.10;99.90;;;;;;5010264;28;20026;-75
2022/12/20 07:32:47;;;;;;;16.98;7.40;;;12.20;99.90;;;;;;5001491;28;20352;-75
2022/12/20 07:35:14;;;;;;;12.15;5.47;;;12.10;99.90;;;;;;5004564;28;20019;-75
2022/12/20 07:37:40;;;;;;;27.88;12.48;;;12.10;99.90;;;;;;4998448;28;20101;-76
2022/12/20 07:40:07;;;;;;;28.25;9.13;;;12.10;99.90;;;;;;4998391;28;20110;-75
2022/12/20 07:42:34;;;;;;;21.08;14.43;;;12.10;99.90;;;;;;4987034;28;20037;-75
2022/12/20 07:44:59;;;;;;;19.15;9.85;;;12.20;99.90;;;;;;5000711;28;20026;-75
2022/12/20 07:47:25;;;;;;;16.08;7.93;;;12.20;99.90;;;;;;5009789;28;20026;-75
2022/12/20 07:49:51;;;;;;;12.40;5.43;;;12.20;99.90;;;;;;5007562;28;20058;-75
2022/12/20 07:52:21;;;;;;;23.60;4.60;;;12.20;99.90;;;;;;5000686;28;20033;-76
2022/12/20 07:54:51;;;;;;;16.73;6.55;;;12.20;99.90;;;;;;5001845;28;20037;-77
2022/12/20 07:57:23;;;;;;;23.02;5.72;;;12.30;99.90;;;;;;4984481;28;20394;-76
2022/12/20 07:59:55;;;;;;;15.73;5.25;;;12.30;99.90;;;;;;5004393;28;20030;-77
2022/12/20 08:02:30;;;;;;;13.80;4.97;;;12.30;99.90;;;;;;5004912;28;20030;-75
2022/12/20 08:04:56;;;;;;;16.08;4.65;;;12.30;99.90;;;;;;4994255;28;20076;-77
2022/12/20 08:07:23;;;;;;;21.73;5.50;;;12.30;99.90;;;;;;5006798;28;20048;-76
2022/12/20 08:09:52;;;;;;;13.13;5.38;;;12.30;99.90;;;;;;5010212;28;20030;-78
2022/12/20 08:12:19;;;;;;;19.17;5.50;;;12.40;99.90;;;;;;5008424;28;20486;-76
2022/12/20 08:14:46;;;;;;;11.75;4.85;;;12.40;99.90;;;;;;5003187;28;20030;-76
2022/12/20 08:17:12;;;;;;;13.75;5.65;;;12.40;99.90;;;;;;5008665;28;20015;-76
2022/12/20 08:19:38;;;;;;;21.27;6.18;;;12.40;99.90;;;;;;5001582;28;20022;-76
2022/12/20 08:22:05;;;;;;;14.90;6.45;;;12.40;99.90;;;;;;5006865;28;20026;-76
2022/12/20 08:24:32;;;;;;;16.02;5.28;;;12.50;99.90;;;;;;5012118;28;20061;-76
2022/12/20 08:26:58;;;;;;;18.58;5.13;;;12.50;99.90;;;;;;5007946;28;20035;-77
2022/12/20 08:29:24;;;;;;;45.90;25.48;;;12.50;99.90;;;;;;4988931;28;20022;-77
2022/12/20 08:31:51;;;;;;;20.35;7.70;;;12.50;99.90;;;;;;5001526;28;20038;-77
2022/12/20 08:34:17;;;;;;;264.55;115.68;;;12.50;99.90;;;;;;5006187;28;20390;-76
2022/12/20 08:36:43;;;;;;;109.93;45.55;;;12.50;99.90;;;;;;4992856;28;20031;-78
2022/12/20 08:39:10;;;;;;;137.77;60.53;;;12.50;99.90;;;;;;5003173;28;20482;-77
2022/12/20 08:41:45;;;;;;;34.65;14.50;;;12.50;99.90;;;;;;5005780;28;20607;-76
2022/12/20 08:44:11;;;;;;;30.55;12.48;;;12.50;99.90;;;;;;5019835;28;20473;-77
2022/12/20 08:46:37;;;;;;;26.80;9.77;;;12.60;99.90;;;;;;5020948;28;20431;-77
2022/12/20 08:49:03;;;;;;;14.85;5.82;;;12.60;99.90;;;;;;5028139;28;20037;-77
2022/12/20 08:51:29;;;;;;;23.63;7.72;;;12.60;99.90;;;;;;5005979;28;20045;-77
2022/12/20 08:53:55;;;;;;;30.52;15.00;;;12.60;99.90;;;;;;5009124;28;20025;-77
2022/12/20 08:56:22;;;;;;;24.42;10.00;;;12.70;99.90;;;;;;5008313;28;20026;-77
2022/12/20 08:58:48;;;;;;;17.08;5.65;;;12.70;99.90;;;;;;5010108;28;20022;-77
2022/12/20 09:01:17;;;;;;;40.60;20.63;;;12.70;99.90;;;;;;4997858;28;20036;-79
2022/12/20 09:03:46;;;;;;;51.33;30.98;;;12.80;99.90;;;;;;5001153;28;20033;-76
2022/12/20 09:06:19;;;;;;;16.48;6.15;;;12.80;99.90;;;;;;5007439;28;20032;-76
2022/12/20 09:08:46;;;;;;;29.48;12.50;;;12.80;99.90;;;;;;4996262;28;20116;-77
2022/12/20 09:11:15;;;;;;;14.63;5.80;;;12.90;99.90;;;;;;5006644;28;20099;-77
2022/12/20 09:13:43;;;;;;;63.75;32.25;;;12.90;99.90;;;;;;5022998;28;20473;-76
2022/12/20 09:16:10;;;;;;;20.95;6.28;;;12.90;99.90;;;;;;5007578;28;20083;-77
2022/12/20 09:18:36;;;;;;;30.80;12.82;;;13.00;99.90;;;;;;5005462;28;20117;-77
2022/12/20 09:21:05;;;;;;;25.50;9.68;;;13.00;99.90;;;;;;5022598;28;20049;-77
2022/12/20 09:23:33;;;;;;;17.55;7.38;;;13.00;99.90;;;;;;5022976;28;20113;-77
2022/12/20 09:26:07;;;;;;;48.45;22.40;;;13.00;99.90;;;;;;5003651;28;20076;-77
2022/12/20 09:28:33;;;;;;;19.90;4.85;;;13.00;99.90;;;;;;5000621;28;20023;-77
2022/12/20 09:31:01;;;;;;;23.30;10.02;;;13.10;99.90;;;;;;5024802;28;20127;-77
2022/12/20 09:33:27;;;;;;;22.73;9.60;;;13.10;99.90;;;;;;5019265;28;20493;-77
2022/12/20 09:35:54;;;;;;;27.33;10.00;;;13.10;99.90;;;;;;5018914;28;20030;-77
2022/12/20 09:38:20;;;;;;;33.42;14.63;;;13.20;99.90;;;;;;5021366;28;20022;-77
2022/12/20 09:40:51;;;;;;;28.00;12.60;;;13.20;99.90;;;;;;5021389;28;20034;-78
2022/12/20 09:43:19;;;;;;;14.68;6.10;;;13.20;99.90;;;;;;5006346;28;20101;-78
2022/12/20 09:45:50;;;;;;;36.10;18.13;;;13.20;99.90;;;;;;5024204;28;20109;-77
2022/12/20 09:48:20;;;;;;;23.60;10.82;;;13.30;99.90;;;;;;5007121;28;20021;-77
2022/12/20 09:50:57;;;;;;;23.03;11.40;;;13.30;99.90;;;;;;5021966;28;20973;-77
2022/12/20 09:54:00;;;;;;;28.25;12.38;;;13.30;99.90;;;;;;5005248;28;20575;-77
2022/12/20 09:56:42;;;;;;;11.88;5.05;;;13.40;99.90;;;;;;5008192;28;20033;-78
2022/12/20 09:59:14;;;;;;;25.95;10.02;;;13.40;99.90;;;;;;5028841;28;20022;-78
2022/12/20 10:01:45;;;;;;;25.35;13.50;;;13.40;99.90;;;;;;5001608;28;20029;-79
2022/12/20 10:04:27;;;;;;;22.30;9.27;;;13.40;99.90;;;;;;5003795;28;20102;-80
2022/12/20 10:07:02;;;;;;;34.47;15.85;;;13.50;99.90;;;;;;4994907;28;20044;-78
2022/12/20 10:10:06;;;;;;;13.35;4.60;;;13.40;99.90;;;;;;4996687;28;20026;-79
2022/12/20 10:12:46;;;;;;;26.42;13.13;;;13.50;99.90;;;;;;4967984;28;20043;-78
2022/12/20 10:15:35;;;;;;;68.95;34.85;;;13.50;99.90;;;;;;5018771;28;20448;-77
2022/12/20 10:18:47;;;;;;;35.35;13.65;;;13.50;99.90;;;;;;5012551;28;20367;-78
2022/12/20 10:21:51;;;;;;;16.83;8.00;;;13.40;99.90;;;;;;4999035;28;20053;-77
2022/12/20 10:24:19;;;;;;;40.92;18.17;;;13.40;99.90;;;;;;4994756;28;20078;-77
2022/12/20 10:26:49;;;;;;;17.83;6.00;;;13.40;99.90;;;;;;5021354;28;20092;-77
2022/12/20 10:29:15;;;;;;;31.20;13.47;;;13.40;99.90;;;;;;5000681;28;20030;-78
2022/12/20 10:31:41;;;;;;;11.88;5.03;;;13.40;99.90;;;;;;4997329;28;20106;-79
2022/12/20 10:34:07;;;;;;;20.48;6.82;;;13.40;99.90;;;;;;5020418;28;20029;-79
2022/12/20 10:36:35;;;;;;;16.55;5.28;;;13.40;99.90;;;;;;5018825;28;20371;-78
2022/12/20 10:39:04;;;;;;;68.60;31.77;;;13.40;99.90;;;;;;4999356;28;20034;-79
2022/12/20 10:41:47;;;;;;;19.83;6.90;;;13.40;99.90;;;;;;5015873;28;20109;-79
2022/12/20 10:44:23;;;;;;;64.70;30.20;;;13.40;99.90;;;;;;5009063;28;20029;-79
2022/12/20 10:46:56;;;;;;;45.75;21.67;;;13.40;99.90;;;;;;5002660;28;20501;-79
2022/12/20 10:49:35;;;;;;;166.15;76.78;;;13.40;99.90;;;;;;5006455;28;20030;-78
2022/12/20 10:52:07;;;;;;;18.33;8.07;;;13.40;99.90;;;;;;5004469;28;20018;-79
2022/12/20 10:54:39;;;;;;;56.35;24.40;;;13.50;99.90;;;;;;5022941;28;20096;-80
2022/12/20 10:57:28;;;;;;;31.88;12.82;;;13.50;99.90;;;;;;5006193;28;20018;-80
2022/12/20 11:00:04;;;;;;;136.20;64.25;;;13.60;99.90;;;;;;5003665;28;20030;-81
2022/12/20 11:02:36;;;;;;;110.97;52.17;;;13.60;99.90;;;;;;5013971;28;20029;-79
2022/12/20 11:05:09;;;;;;;15.80;6.43;;;13.70;99.90;;;;;;5016958;28;20505;-80
2022/12/20 11:07:54;;;;;;;14.98;6.57;;;13.70;99.90;;;;;;5001815;28;20033;-81
2022/12/20 11:10:25;;;;;;;19.77;11.02;;;13.70;99.90;;;;;;5019109;28;20034;-80
2022/12/20 11:13:00;;;;;;;16.13;4.82;;;13.70;99.90;;;;;;5008727;28;20029;-81
2022/12/20 11:15:49;;;;;;;12.82;4.93;;;13.70;99.90;;;;;;5005197;28;20026;-80
2022/12/20 11:18:19;;;;;;;14.00;4.25;;;13.70;99.90;;;;;;5002204;28;20045;-82
2022/12/20 11:21:16;;;;;;;11.43;4.53;;;13.70;99.90;;;;;;5016483;28;20544;-79
2022/12/20 11:24:10;;;;;;;11.73;5.13;;;13.80;99.90;;;;;;4999367;28;20079;-79
2022/12/20 11:26:51;;;;;;;17.88;5.45;;;13.80;99.90;;;;;;4998836;28;20038;-80
2022/12/20 11:30:02;;;;;;;10.85;3.80;;;13.80;99.90;;;;;;4994656;28;20022;-80
2022/12/20 11:32:40;;;;;;;;;;;13.90;99.90;;;;;;4993130;28;20038;-79
2022/12/20 11:35:24;;;;;;;10.93;4.15;;;13.90;99.90;;;;;;4995030;28;19913;-81
2022/12/20 11:38:08;;;;;;;47.15;23.85;;;13.90;99.90;;;;;;5020301;28;20022;-79
2022/12/20 11:40:53;;;;;;;92.60;40.00;;;13.90;99.90;;;;;;5006400;28;20030;-78
2022/12/20 11:43:19;;;;;;;160.50;93.22;;;13.90;99.90;;;;;;4998661;28;20148;-77
2022/12/20 11:45:51;;;;;;;74.85;41.95;;;13.90;99.90;;;;;;5006533;28;20048;-81
2022/12/20 11:48:38;;;;;;;22.75;6.50;;;14.00;99.90;;;;;;4995658;28;20028;-81
2022/12/20 11:51:10;;;;;;;14.98;8.55;;;14.00;99.90;;;;;;4985432;28;20129;-80
2022/12/20 11:53:36;;;;;;;7.88;3.90;;;14.00;99.90;;;;;;5004763;28;20026;-81
2022/12/20 11:56:29;;;;;;;16.45;4.68;;;14.00;99.90;;;;;;5017572;28;20084;-80
2022/12/20 11:59:32;;;;;;;17.05;5.15;;;14.00;99.90;;;;;;5024989;28;20511;-80
2022/12/20 12:02:16;;;;;;;19.13;8.15;;;14.00;99.90;;;;;;5015352;28;20421;-80
2022/12/20 12:05:10;;;;;;;20.58;11.85;;;14.00;99.90;;;;;;4993652;28;20025;-78
2022/12/20 12:07:40;;;;;;;14.98;4.90;;;14.00;99.90;;;;;;4962640;28;20049;-82
2022/12/20 12:10:23;;;;;;;28.00;14.77;;;14.10;99.90;;;;;;4999608;28;20028;-80
2022/12/20 12:13:06;;;;;;;17.65;7.72;;;14.20;99.90;;;;;;5017277;28;20394;-81
2022/12/20 12:16:02;;;;;;;26.63;15.85;;;14.20;99.90;;;;;;5017612;28;20026;-80
2022/12/20 12:18:34;;;;;;;20.38;6.38;;;14.20;99.90;;;;;;5000239;28;20025;-78
2022/12/20 12:21:23;;;;;;;14.80;4.70;;;14.20;99.90;;;;;;5001063;28;20113;-79
2022/12/20 12:24:26;;;;;;;15.80;6.22;;;14.20;99.90;;;;;;5020591;28;20029;-80
2022/12/20 12:26:53;;;;;;;13.35;4.47;;;14.20;99.90;;;;;;4993612;28;20034;-80
2022/12/20 12:29:20;;;;;;;16.40;4.53;;;14.20;99.90;;;;;;5002156;28;20025;-80
2022/12/20 12:31:45;;;;;;;10.57;3.33;;;14.10;99.90;;;;;;4995786;28;20137;-81
2022/12/20 12:34:40;;;;;;;19.98;4.38;;;14.10;99.90;;;;;;5014092;28;20030;-82
2022/12/20 12:37:24;;;;;;;9.30;4.43;;;14.00;99.90;;;;;;4988407;28;20060;-81
2022/12/20 12:39:53;;;;;;;14.93;4.05;;;13.90;99.90;;;;;;4995465;28;20393;-80
2022/12/20 12:42:47;;;;;;;11.48;4.32;;;14.00;99.90;;;;;;4983874;28;20056;-81
2022/12/20 12:45:20;;;;;;;19.05;7.30;;;13.90;99.90;;;;;;5007144;28;20087;-80
2022/12/20 12:47:57;;;;;;;15.10;5.85;;;14.00;99.90;;;;;;5018575;28;20037;-79
2022/12/20 12:50:26;;;;;;;10.27;4.75;;;14.00;99.90;;;;;;5001128;28;20021;-85
2022/12/20 12:52:56;;;;;;;12.38;8.35;;;14.00;99.90;;;;;;5007719;28;20497;-87
2022/12/20 12:55:54;;;;;;;17.98;6.38;;;14.00;99.90;;;;;;5024607;28;20022;-83
2022/12/20 12:58:23;;;;;;;15.70;5.05;;;14.00;99.90;;;;;;4954905;28;20041;-82
2022/12/20 13:00:59;;;;;;;32.20;27.40;;;14.00;99.90;;;;;;4999949;28;20034;-83
2022/12/20 13:03:42;;;;;;;16.25;4.63;;;14.00;99.90;;;;;;5024252;28;20026;-84
2022/12/20 13:06:27;;;;;;;11.00;4.45;;;14.00;99.90;;;;;;5021975;28;20018;-86